Library, Pennsylvania
Current Conditions -  °F | °C
As of 8:53 AM on Tuesday 21 Oct 2014 (Local Time) from KAGC Reporting Station
Haze Haze  
Wind Chill: 50°   Ceiling: 400
Heat Index: 50°   Visibility: 2mi
Dew Point: 46°   Wind: 7mph
Humidity: 86%   Direction: 220°SW
Pressure: 29.87"   Gusts: NA
Location:  40.29°N, 80.01°W
Report Text: KAGC 211253Z 22006KT 2SM BR BKN004 OVC020 10/08 A2987 RMK AO2 SLP119 T01000078
Loading
Personal Weather Stations






























Interactive Weather Map
Tropical Storm Tracking
New forecast layout! Learn more

10-Day Weather Forecast

Advertisements
Track Severe Weather on mobile